アロフィ の空港の天気 - METARとTAF

ニウエ国際空港 ( NIUE / IUE ) - ニウエ アロフィ
飛行場実況気象(Metar)
観測時間11/12 14:00 NUT (11/13 01:00 UTC)
風向・風速北西 2m/s
視程10km以上
天気現象弱い霧雨
全天の4割程度の雲 雲底高度 520m
全天の8割程度の雲 雲底高度 880m
全天を覆う雲 雲底高度 3050m
気温25℃
湿度94%
気圧1011hPa
METARNIUE 130100Z 31003KT 9999 -DZ SCT017 BKN029 OVC100 25/24 Q1011
過去の天気等 Google飛行場航空写真 Wunderground天気予報

過去48時間のMETAR

飛行場予報(TAF)
データがありません